Time;durP1;ratioP1;P1;durP2;ratioP2;P2;SDS_P1;SDS_P2;PMS_P1;PMS_P2;Temp;Humidity;BMP_temperature;BMP_pressure;BME280_temperature;BME280_humidity;BME280_pressure;Samples;Min_cycle;Max_cycle;Signal;HPM_P1;HPM_P2
2022/04/18 00:01:11;;;;;;;;;;;;;;;;;;5093320;28;19946;-75
2022/04/18 00:03:37;;;;;;;;;;;;;;;;;;5093142;28;19920;-75
2022/04/18 00:06:02;;;;;;;;;;;;;;;;;;5093220;28;20287;-75
2022/04/18 00:08:28;;;;;;;;;;;;;;;;;;5092235;28;20464;-75
2022/04/18 00:10:53;;;;;;;;;;;;;;;;;;5091912;28;20289;-75
2022/04/18 00:13:18;;;;;;;;;;;;;;;;;;5092223;28;20548;-75
2022/04/18 00:15:43;;;;;;;;;;;;;;;;;;5091750;28;19916;-75
2022/04/18 00:18:09;;;;;;;;;;;;;;;;;;5092430;28;20385;-75
2022/04/18 00:20:34;;;;;;;;;;;;;;;;;;5092325;28;20018;-75
2022/04/18 00:22:59;;;;;;;;;;;;;;;;;;5093549;28;20320;-75
2022/04/18 00:25:26;;;;;;;;;;;;;;;;;;5093328;28;19952;-75
2022/04/18 00:27:51;;;;;;;;;;;;;;;;;;5092541;28;19938;-75
2022/04/18 00:30:17;;;;;;;;;;;;;;;;;;5090604;28;20464;-75
2022/04/18 00:32:42;;;;;;;;;;;;;;;;;;5089141;28;19925;-75
2022/04/18 00:35:08;;;;;;;;;;;;;;;;;;5090499;28;20324;-75
2022/04/18 00:37:36;;;;;;;;;;;;;;;;;;5090503;28;19924;-75
2022/04/18 00:40:02;;;;;;;;;;;;;;;;;;5090500;28;20495;-75
2022/04/18 00:42:27;;;;;;;;;;;;;;;;;;5092591;28;19971;-75
2022/04/18 00:44:53;;;;;;;;;;;;;;;;;;5092517;28;19916;-75
2022/04/18 00:47:18;;;;;;;;;;;;;;;;;;5093923;28;20440;-75
2022/04/18 00:49:43;;;;;;;;;;;;;;;;;;5093525;28;20010;-75
2022/04/18 00:52:09;;;;;;;;;;;;;;;;;;5094222;28;19916;-75
2022/04/18 00:54:34;;;;;;;;;;;;;;;;;;5093694;28;20301;-75
2022/04/18 00:57:00;;;;;;;;;;;;;;;;;;5093408;28;19928;-75
2022/04/18 00:59:26;;;;;;;;;;;;;;;;;;5093883;28;19920;-75
2022/04/18 01:01:52;;;;;;;;;;;;;;;;;;5092564;28;20428;-75
2022/04/18 01:04:17;;;;;;;;;;;;;;;;;;5088910;28;20015;-75
2022/04/18 01:06:43;;;;;;;;;;;;;;;;;;5073643;28;19995;-75
2022/04/18 01:09:08;;;;;;;;;;;;;;;;;;5071736;28;19917;-75
2022/04/18 01:11:34;;;;;;;;;;;;;;;;;;5072370;28;19959;-75
2022/04/18 01:14:28;;;;;;;;;;;;;;;;;;5077146;28;19928;-75
2022/04/18 01:16:59;;;;;;;;;;;;;;;;;;5073492;28;20369;-75
2022/04/18 01:19:31;;;;;;;;;;;;;;;;;;5072081;28;19927;-75
2022/04/18 01:22:25;;;;;;;;;;;;;;;;;;5072160;28;20362;-75
2022/04/18 01:30:40;;;;;;;;;;;;;;;;;;5074767;28;20006;-75
2022/04/18 01:33:08;;;;;;;;;;;;;;;;;;5092060;28;20019;-75
2022/04/18 01:35:36;;;;;;;;;;;;;;;;;;5092299;28;19970;-75
2022/04/18 01:38:01;;;;;;;;;;;;;;;;;;5092256;28;19916;-75
2022/04/18 01:40:27;;;;;;;;;;;;;;;;;;5093542;28;20019;-75
2022/04/18 01:42:52;;;;;;;;;;;;;;;;;;5075473;28;19947;-75
2022/04/18 01:45:18;;;;;;;;;;;;;;;;;;5095189;28;20442;-75
2022/04/18 01:47:50;;;;;;;;;;;;;;;;;;5095653;28;19966;-75
2022/04/18 01:50:17;;;;;;;;;;;;;;;;;;5095709;28;19916;-75
2022/04/18 01:52:42;;;;;;;;;;;;;;;;;;5097429;28;19923;-75
2022/04/18 01:55:08;;;;;;;;;;;;;;;;;;5095874;28;20471;-75
2022/04/18 01:57:33;;;;;;;;;;;;;;;;;;5096769;28;19920;-75
2022/04/18 01:59:58;;;;;;;;;;;;;;;;;;5095998;28;19920;-75
2022/04/18 02:02:24;;;;;;;;;;;;;;;;;;5073974;28;19916;-75
2022/04/18 02:04:49;;;;;;;;;;;;;;;;;;5076844;28;19923;-75
2022/04/18 02:07:15;;;;;;;;;;;;;;;;;;5058197;28;19924;-75
2022/04/18 02:09:46;;;;;;;;;;;;;;;;;;5084568;28;20009;-76
2022/04/18 02:12:12;;;;;;;;;;;;;;;;;;5095779;28;20596;-75
2022/04/18 02:14:50;;;;;;;;;;;;;;;;;;5090667;28;19978;-75
2022/04/18 02:17:17;;;;;;;;;;;;;;;;;;5075015;28;19924;-75
2022/04/18 02:19:44;;;;;;;;;;;;;;;;;;5074961;28;19917;-75
2022/04/18 02:22:10;;;;;;;;;;;;;;;;;;5075123;28;19922;-75
2022/04/18 02:24:35;;;;;;;;;;;;;;;;;;5074876;28;19999;-75
2022/04/18 02:27:00;;;;;;;;;;;;;;;;;;5076230;28;19916;-75
2022/04/18 02:29:26;;;;;;;;;;;;;;;;;;5075169;28;19916;-75
2022/04/18 02:34:36;;;;;;;;;;;;;;;;;;5076315;28;20286;-76
2022/04/18 02:37:01;;;;;;;;;;;;;;;;;;5080157;28;19970;-75
2022/04/18 02:39:30;;;;;;;;;;;;;;;;;;5091812;28;20359;-75
2022/04/18 02:41:57;;;;;;;;;;;;;;;;;;5074789;28;19923;-75
2022/04/18 02:44:24;;;;;;;;;;;;;;;;;;5074834;28;19922;-75
2022/04/18 02:46:50;;;;;;;;;;;;;;;;;;5091540;28;19951;-75
2022/04/18 02:49:16;;;;;;;;;;;;;;;;;;5091692;28;20410;-75
2022/04/18 02:51:41;;;;;;;;;;;;;;;;;;5091294;28;19917;-75
2022/04/18 02:54:11;;;;;;;;;;;;;;;;;;5091729;28;20251;-75
2022/04/18 02:56:36;;;;;;;;;;;;;;;;;;5072801;28;19927;-75
2022/04/18 02:59:02;;;;;;;;;;;;;;;;;;5075692;28;20411;-75
2022/04/18 03:01:28;;;;;;;;;;;;;;;;;;5080172;28;19916;-75
2022/04/18 03:03:55;;;;;;;;;;;;;;;;;;5093807;28;20373;-75
2022/04/18 03:06:21;;;;;;;;;;;;;;;;;;5094363;28;19916;-75
2022/04/18 03:08:47;;;;;;;;;;;;;;;;;;5094343;28;20007;-75
2022/04/18 03:11:12;;;;;;;;;;;;;;;;;;5077465;28;19922;-75
2022/04/18 03:13:43;;;;;;;;;;;;;;;;;;5094568;28;19916;-75
2022/04/18 03:16:13;;;;;;;;;;;;;;;;;;5089559;28;19917;-75
2022/04/18 03:18:39;;;;;;;;;;;;;;;;;;5074562;28;20263;-75
2022/04/18 03:21:05;;;;;;;;;;;;;;;;;;5072405;28;20332;-75
2022/04/18 03:23:32;;;;;;;;;;;;;;;;;;5073926;28;19977;-75
2022/04/18 03:26:13;;;;;;;;;;;;;;;;;;5075146;28;19935;-75
2022/04/18 03:28:58;;;;;;;;;;;;;;;;;;5073681;28;19923;-75
2022/04/18 03:31:24;;;;;;;;;;;;;;;;;;5079145;28;20406;-75
2022/04/18 03:33:49;;;;;;;;;;;;;;;;;;5074542;28;19916;-75
2022/04/18 03:41:45;;;;;;;;;;;;;;;;;;5073534;28;20014;-75
2022/04/18 03:44:11;;;;;;;;;;;;;;;;;;5073794;28;20329;-75
2022/04/18 03:46:37;;;;;;;;;;;;;;;;;;5056712;28;19924;-75
2022/04/18 03:49:02;;;;;;;;;;;;;;;;;;5072876;28;19913;-75
2022/04/18 03:51:28;;;;;;;;;;;;;;;;;;5073626;28;19966;-75
2022/04/18 03:53:54;;;;;;;;;;;;;;;;;;5073591;28;20279;-73
2022/04/18 03:56:22;;;;;;;;;;;;;;;;;;5072808;28;19921;-75
2022/04/18 03:59:11;;;;;;;;;;;;;;;;;;5073567;28;19920;-75
2022/04/18 04:01:56;;;;;;;;;;;;;;;;;;5080826;28;19995;-75
2022/04/18 04:04:22;;;;;;;;;;;;;;;;;;5070585;28;19916;-75
2022/04/18 04:06:48;;;;;;;;;;;;;;;;;;5070521;28;20007;-75
2022/04/18 04:09:13;;;;;;;;;;;;;;;;;;5069921;28;20012;-75
2022/04/18 04:11:38;;;;;;;;;;;;;;;;;;5070598;28;19917;-75
2022/04/18 04:14:05;;;;;;;;;;;;;;;;;;5071002;28;20260;-75
2022/04/18 04:16:31;;;;;;;;;;;;;;;;;;5071587;28;20026;-75
2022/04/18 04:18:56;;;;;;;;;;;;;;;;;;5074138;28;20374;-75
2022/04/18 04:21:22;;;;;;;;;;;;;;;;;;5073025;28;19920;-75
2022/04/18 04:23:48;;;;;;;;;;;;;;;;;;5072763;28;20373;-75
2022/04/18 04:26:37;;;;;;;;;;;;;;;;;;5075904;28;19917;-75
2022/04/18 04:29:02;;;;;;;;;;;;;;;;;;5074102;28;20370;-75
2022/04/18 04:31:33;;;;;;;;;;;;;;;;;;5086875;28;19951;-75
2022/04/18 04:33:59;;;;;;;;;;;;;;;;;;5092776;28;19985;-75
2022/04/18 04:36:26;;;;;;;;;;;;;;;;;;5092788;28;20011;-75
2022/04/18 04:38:54;;;;;;;;;;;;;;;;;;5092688;28;19924;-75
2022/04/18 04:41:39;;;;;;;;;;;;;;;;;;5092941;28;19916;-75
2022/04/18 04:44:06;;;;;;;;;;;;;;;;;;5093860;28;19977;-75
2022/04/18 04:46:40;;;;;;;;;;;;;;;;;;5092359;28;19916;-75
2022/04/18 04:49:11;;;;;;;;;;;;;;;;;;5092665;28;19920;-75
2022/04/18 04:51:42;;;;;;;;;;;;;;;;;;5090914;28;19990;-75
2022/04/18 04:54:08;;;;;;;;;;;;;;;;;;5092296;28;19920;-75
2022/04/18 04:56:37;;;;;;;;;;;;;;;;;;5075790;28;19950;-76
2022/04/18 04:59:04;;;;;;;;;;;;;;;;;;5093399;28;20402;-75
2022/04/18 05:01:31;;;;;;;;;;;;;;;;;;5090538;28;19916;-75
2022/04/18 05:04:01;;;;;;;;;;;;;;;;;;5092625;28;19969;-75
2022/04/18 05:06:28;;;;;;;;;;;;;;;;;;5092304;28;19920;-75
2022/04/18 05:08:55;;;;;;;;;;;;;;;;;;5093907;28;19942;-75
2022/04/18 05:11:22;;;;;;;;;;;;;;;;;;5092273;28;19923;-75
2022/04/18 05:13:50;;;;;;;;;;;;;;;;;;5076110;28;19916;-75
2022/04/18 05:16:19;;;;;;;;;;;;;;;;;;5091581;28;19916;-75
2022/04/18 05:18:52;;;;;;;;;;;;;;;;;;5092625;28;19921;-75
2022/04/18 05:21:17;;;;;;;;;;;;;;;;;;5098350;28;19926;-75
2022/04/18 05:23:44;;;;;;;;;;;;;;;;;;5096666;28;20019;-75
2022/04/18 05:26:11;;;;;;;;;;;;;;;;;;5096595;28;19916;-75
2022/04/18 05:28:38;;;;;;;;;;;;;;;;;;5096477;28;19973;-75
2022/04/18 05:31:06;;;;;;;;;;;;;;;;;;5095170;28;19916;-75
2022/04/18 05:33:33;;;;;;;;;;;;;;;;;;5091211;28;19920;-74
2022/04/18 05:36:20;;;;;;;;;;;;;;;;;;5080062;28;19916;-74
2022/04/18 05:38:46;;;;;;;;;;;;;;;;;;5075896;28;19927;-75
2022/04/18 05:41:16;;;;;;;;;;;;;;;;;;5075844;28;19920;-75
2022/04/18 05:43:44;;;;;;;;;;;;;;;;;;5075809;28;19924;-75
2022/04/18 05:46:10;;;;;;;;;;;;;;;;;;5075343;28;19917;-75
2022/04/18 05:48:36;;;;;;;;;;;;;;;;;;5075323;28;19920;-75
2022/04/18 05:51:02;;;;;;;;;;;;;;;;;;5075040;28;19923;-75
2022/04/18 05:53:29;;;;;;;;;;;;;;;;;;5077122;28;19917;-75
2022/04/18 05:56:04;;;;;;;;;;;;;;;;;;5076769;28;19921;-75
2022/04/18 05:58:42;;;;;;;;;;;;;;;;;;5076834;28;19920;-75
2022/04/18 06:01:28;;;;;;;;;;;;;;;;;;5077339;28;20433;-75
2022/04/18 06:03:54;;;;;;;;;;;;;;;;;;5091952;28;19916;-75
2022/04/18 06:06:20;;;;;;;;;;;;;;;;;;5096555;28;19961;-75
2022/04/18 06:08:45;;;;;;;;;;;;;;;;;;5078842;28;20358;-75
2022/04/18 06:11:17;;;;;;;;;;;;;;;;;;5095913;28;19916;-75
2022/04/18 06:13:55;;;;;;;;;;;;;;;;;;5096501;28;20061;-75
2022/04/18 06:16:20;;;;;;;;;;;;;;;;;;5115126;28;19939;-75
2022/04/18 06:18:47;;;;;;;;;;;;;;;;;;5115260;28;20377;-75
2022/04/18 06:21:14;;;;;;;;;;;;;;;;;;5115540;28;19923;-75
2022/04/18 06:23:41;;;;;;;;;;;;;;;;;;5115818;28;19923;-75
2022/04/18 06:26:25;;;;;;;;;;;;;;;;;;5116887;28;19937;-75
2022/04/18 06:28:52;;;;;;;;;;;;;;;;;;5115270;28;20008;-75
2022/04/18 06:31:17;;;;;;;;;;;;;;;;;;5113963;28;19965;-75
2022/04/18 06:33:53;;;;;;;;;;;;;;;;;;5104743;28;19927;-75
2022/04/18 06:36:18;;;;;;;;;;;;;;;;;;5083208;28;19916;-75
2022/04/18 06:38:53;;;;;;;;;;;;;;;;;;5083856;28;19934;-75
2022/04/18 06:41:24;;;;;;;;;;;;;;;;;;5066455;28;19922;-76
2022/04/18 06:43:49;;;;;;;;;;;;;;;;;;5079312;28;19916;-75
2022/04/18 06:46:17;;;;;;;;;;;;;;;;;;5082176;28;19921;-77
2022/04/18 06:48:42;;;;;;;;;;;;;;;;;;5083707;28;20306;-74
2022/04/18 06:51:26;;;;;;;;;;;;;;;;;;5075334;28;20298;-76
2022/04/18 06:54:10;;;;;;;;;;;;;;;;;;5085594;28;19962;-75
2022/04/18 06:57:02;;;;;;;;;;;;;;;;;;5084329;28;20274;-75
2022/04/18 06:59:37;;;;;;;;;;;;;;;;;;5082189;28;19928;-75
2022/04/18 07:02:03;;;;;;;;;;;;;;;;;;5083275;28;19923;-75
2022/04/18 07:04:28;;;;;;;;;;;;;;;;;;5083999;28;19920;-75
2022/04/18 07:06:54;;;;;;;;;;;;;;;;;;5092026;28;19916;-75
2022/04/18 07:09:21;;;;;;;;;;;;;;;;;;5082687;28;19916;-76
2022/04/18 07:11:49;;;;;;;;;;;;;;;;;;5083518;28;20320;-76
2022/04/18 07:14:17;;;;;;;;;;;;;;;;;;5083611;28;19924;-75
2022/04/18 07:16:45;;;;;;;;;;;;;;;;;;5082774;28;19940;-74
2022/04/18 07:19:15;;;;;;;;;;;;;;;;;;5084562;28;19920;-75
2022/04/18 07:21:41;;;;;;;;;;;;;;;;;;5082504;28;19917;-75
2022/04/18 07:24:06;;;;;;;;;;;;;;;;;;5085205;28;19977;-74
2022/04/18 07:26:32;;;;;;;;;;;;;;;;;;5084354;28;19920;-75
2022/04/18 07:28:58;;;;;;;;;;;;;;;;;;5082276;28;19921;-74
2022/04/18 07:31:23;;;;;;;;;;;;;;;;;;5084078;28;20006;-73
2022/04/18 07:33:48;;;;;;;;;;;;;;;;;;5083695;28;19916;-79
2022/04/18 07:36:20;;;;;;;;;;;;;;;;;;5083151;28;20297;-75
2022/04/18 07:38:49;;;;;;;;;;;;;;;;;;5083871;28;19982;-77
2022/04/18 07:41:17;;;;;;;;;;;;;;;;;;5084737;28;20299;-77
2022/04/18 07:43:44;;;;;;;;;;;;;;;;;;5082194;28;19923;-77
2022/04/18 07:46:12;;;;;;;;;;;;;;;;;;5083355;28;20373;-77
2022/04/18 07:48:39;;;;;;;;;;;;;;;;;;5090779;28;20328;-74
2022/04/18 07:53:48;;;;;;;;;;;;;;;;;;5083762;28;19974;-76
2022/04/18 07:56:14;;;;;;;;;;;;;;;;;;5079687;28;19920;-75
2022/04/18 07:58:39;;;;;;;;;;;;;;;;;;5083841;28;19963;-74
2022/04/18 08:01:13;;;;;;;;;;;;;;;;;;5082830;28;20286;-73
2022/04/18 08:03:38;;;;;;;;;;;;;;;;;;5082526;28;19916;-75
2022/04/18 08:06:05;;;;;;;;;;;;;;;;;;5083519;28;19966;-81
2022/04/18 08:08:40;;;;;;;;;;;;;;;;;;5081958;28;19966;-75
2022/04/18 08:11:05;;;;;;;;;;;;;;;;;;5086457;28;19916;-83
2022/04/18 08:13:31;;;;;;;;;;;;;;;;;;5096153;28;19920;-83
2022/04/18 08:16:29;;;;;;;;;;;;;;;;;;5100442;28;19952;-80
2022/04/18 08:19:01;;;;;;;;;;;;;;;;;;5099444;28;19919;-80
2022/04/18 08:21:27;;;;;;;;;;;;;;;;;;5099161;28;19937;-80
2022/04/18 08:23:52;;;;;;;;;;;;;;;;;;5099996;28;20282;-83
2022/04/18 08:26:52;;;;;;;;;;;;;;;;;;5097862;28;19994;-80
2022/04/18 08:29:24;;;;;;;;;;;;;;;;;;5096768;28;19923;-83
2022/04/18 08:32:22;;;;;;;;;;;;;;;;;;5098691;27;20374;-81
2022/04/18 08:34:53;;;;;;;;;;;;;;;;;;5094255;28;20265;-86
2022/04/18 08:37:19;;;;;;;;;;;;;;;;;;5081946;28;19920;-85
2022/04/18 08:40:23;;;;;;;;;;;;;;;;;;5104775;28;20011;-79
2022/04/18 08:42:53;;;;;;;;;;;;;;;;;;5104426;28;19994;-76
2022/04/18 08:45:23;;;;;;;;;;;;;;;;;;5091997;28;19958;-78
2022/04/18 08:53:24;;;;;;;;;;;;;;;;;;5083061;28;19920;-76
2022/04/18 08:55:49;;;;;;;;;;;;;;;;;;5081787;28;19978;-75
2022/04/18 08:58:34;;;;;;;;;;;;;;;;;;5081665;28;19952;-76
2022/04/18 09:01:02;;;;;;;;;;;;;;;;;;5080161;28;19959;-76
2022/04/18 09:03:48;;;;;;;;;;;;;;;;;;5088801;28;19924;-75
2022/04/18 09:06:15;;;;;;;;;;;;;;;;;;5096129;28;19916;-75
2022/04/18 09:08:51;;;;;;;;;;;;;;;;;;5073083;28;20255;-76
2022/04/18 09:11:44;;;;;;;;;;;;;;;;;;5073490;28;20015;-75
2022/04/18 09:14:15;;;;;;;;;;;;;;;;;;5089666;28;19916;-75
2022/04/18 09:16:45;;;;;;;;;;;;;;;;;;5077970;28;19939;-75
2022/04/18 09:19:32;;;;;;;;;;;;;;;;;;5086547;28;19970;-76
2022/04/18 09:22:01;;;;;;;;;;;;;;;;;;5077647;28;19919;-75
2022/04/18 09:24:35;;;;;;;;;;;;;;;;;;5089695;28;20265;-75
2022/04/18 09:27:25;;;;;;;;;;;;;;;;;;5082674;28;20003;-75
2022/04/18 09:30:09;;;;;;;;;;;;;;;;;;5085978;28;19973;-75
2022/04/18 09:32:40;;;;;;;;;;;;;;;;;;5072358;28;19925;-75
2022/04/18 09:35:25;;;;;;;;;;;;;;;;;;5079259;28;19956;-75
2022/04/18 09:37:53;;;;;;;;;;;;;;;;;;5088421;28;19920;-75
2022/04/18 09:40:38;;;;;;;;;;;;;;;;;;5086553;28;19927;-79
2022/04/18 09:43:05;;;;;;;;;;;;;;;;;;5088410;28;19924;-82
2022/04/18 09:45:31;;;;;;;;;;;;;;;;;;5085341;28;19916;-77
2022/04/18 09:47:58;;;;;;;;;;;;;;;;;;5086745;28;19923;-77
2022/04/18 09:53:22;;;;;;;;;;;;;;;;;;5087752;28;19917;-76
2022/04/18 09:55:49;;;;;;;;;;;;;;;;;;5078117;28;19923;-75
2022/04/18 09:58:14;;;;;;;;;;;;;;;;;;5083125;28;20263;-75
2022/04/18 10:00:41;;;;;;;;;;;;;;;;;;5084362;28;19927;-77
2022/04/18 10:03:06;;;;;;;;;;;;;;;;;;5081802;28;19965;-76
2022/04/18 10:05:32;;;;;;;;;;;;;;;;;;5086321;28;20379;-73
2022/04/18 10:08:03;;;;;;;;;;;;;;;;;;5086164;28;20535;-74
2022/04/18 10:10:29;;;;;;;;;;;;;;;;;;5076636;28;19923;-81
2022/04/18 10:12:55;;;;;;;;;;;;;;;;;;5077317;28;20293;-79
2022/04/18 10:15:20;;;;;;;;;;;;;;;;;;5078258;28;19920;-79
2022/04/18 10:17:46;;;;;;;;;;;;;;;;;;5080888;28;20281;-82
2022/04/18 10:20:24;;;;;;;;;;;;;;;;;;5081474;28;19916;-83
2022/04/18 10:23:03;;;;;;;;;;;;;;;;;;5083327;28;19962;-80
2022/04/18 10:25:47;;;;;;;;;;;;;;;;;;5081185;28;19921;-79
2022/04/18 10:28:15;;;;;;;;;;;;;;;;;;5080595;28;19916;-81
2022/04/18 10:30:44;;;;;;;;;;;;;;;;;;5079236;28;19923;-78
2022/04/18 10:33:12;;;;;;;;;;;;;;;;;;5090070;28;19916;-85
2022/04/18 10:35:57;;;;;;;;;;;;;;;;;;5100984;28;20326;-83
2022/04/18 10:38:27;;;;;;;;;;;;;;;;;;5045654;28;19983;-77
2022/04/18 10:41:14;;;;;;;;;;;;;;;;;;5078675;28;19916;-77
2022/04/18 10:43:59;;;;;;;;;;;;;;;;;;5082267;28;19917;-80
2022/04/18 10:46:25;;;;;;;;;;;;;;;;;;5083873;28;19916;-82
2022/04/18 10:48:58;;;;;;;;;;;;;;;;;;5079920;28;19937;-82
2022/04/18 10:51:33;;;;;;;;;;;;;;;;;;5089610;28;19919;-87
2022/04/18 10:54:18;;;;;;;;;;;;;;;;;;5088800;28;19954;-82
2022/04/18 10:57:19;;;;;;;;;;;;;;;;;;5080885;28;19920;-79
2022/04/18 10:59:46;;;;;;;;;;;;;;;;;;5039927;28;19928;-79
2022/04/18 11:02:30;;;;;;;;;;;;;;;;;;5074669;28;20708;-80
2022/04/18 11:04:55;;;;;;;;;;;;;;;;;;5074435;28;19916;-77
2022/04/18 11:07:36;;;;;;;;;;;;;;;;;;5096253;28;20332;-78
2022/04/18 11:10:16;;;;;;;;;;;;;;;;;;5098118;28;19965;-77
2022/04/18 11:12:43;;;;;;;;;;;;;;;;;;5116996;28;20346;-78
2022/04/18 11:15:09;;;;;;;;;;;;;;;;;;5117507;28;20289;-78
2022/04/18 11:17:37;;;;;;;;;;;;;;;;;;5115686;28;19920;-77
2022/04/18 11:20:22;;;;;;;;;;;;;;;;;;5116667;28;20006;-77
2022/04/18 11:23:06;;;;;;;;;;;;;;;;;;5114132;28;19915;-79
2022/04/18 11:25:48;;;;;;;;;;;;;;;;;;5079260;28;20011;-77
2022/04/18 11:28:15;;;;;;;;;;;;;;;;;;5075137;28;19923;-78
2022/04/18 11:30:41;;;;;;;;;;;;;;;;;;5077761;28;19960;-78
2022/04/18 11:33:06;;;;;;;;;;;;;;;;;;5075691;28;19916;-78
2022/04/18 11:35:31;;;;;;;;;;;;;;;;;;5076342;28;20019;-78
2022/04/18 11:37:57;;;;;;;;;;;;;;;;;;5093075;28;20018;-78
2022/04/18 11:40:22;;;;;;;;;;;;;;;;;;5096334;28;20393;-79
2022/04/18 11:42:48;;;;;;;;;;;;;;;;;;5098194;28;19920;-78
2022/04/18 11:45:21;;;;;;;;;;;;;;;;;;5095685;28;20410;-77
2022/04/18 11:47:47;;;;;;;;;;;;;;;;;;5094407;28;19938;-78
2022/04/18 11:50:14;;;;;;;;;;;;;;;;;;5094365;28;19938;-78
2022/04/18 11:52:40;;;;;;;;;;;;;;;;;;5094241;28;20331;-77
2022/04/18 11:55:05;;;;;;;;;;;;;;;;;;5093557;28;20400;-78
2022/04/18 11:57:32;;;;;;;;;;;;;;;;;;5092343;28;19920;-77
2022/04/18 11:59:58;;;;;;;;;;;;;;;;;;5092858;28;20313;-77
2022/04/18 12:07:57;;;;;;;;;;;;;;;;;;5087071;28;19963;-78
2022/04/18 12:10:25;;;;;;;;;;;;;;;;;;5087790;28;19920;-78
2022/04/18 12:12:51;;;;;;;;;;;;;;;;;;5086295;28;19924;-77
2022/04/18 12:15:19;;;;;;;;;;;;;;;;;;5078793;28;19917;-81
2022/04/18 12:17:45;;;;;;;;;;;;;;;;;;5088848;28;19917;-78
2022/04/18 12:20:29;;;;;;;;;;;;;;;;;;5086609;28;19943;-81
2022/04/18 12:22:58;;;;;;;;;;;;;;;;;;5083627;28;19958;-84
2022/04/18 12:25:25;;;;;;;;;;;;;;;;;;5083823;28;19916;-82
2022/04/18 12:27:50;;;;;;;;;;;;;;;;;;5080594;28;20300;-79
2022/04/18 12:30:17;;;;;;;;;;;;;;;;;;5086613;28;19924;-80
2022/04/18 12:32:44;;;;;;;;;;;;;;;;;;5085479;28;19917;-81
2022/04/18 12:35:10;;;;;;;;;;;;;;;;;;5079629;28;19917;-78
2022/04/18 12:37:35;;;;;;;;;;;;;;;;;;5091337;28;19920;-78
2022/04/18 12:40:11;;;;;;;;;;;;;;;;;;5085260;28;19932;-79
2022/04/18 12:42:36;;;;;;;;;;;;;;;;;;5088551;28;19923;-78
2022/04/18 12:45:02;;;;;;;;;;;;;;;;;;5089612;28;19916;-79
2022/04/18 12:47:30;;;;;;;;;;;;;;;;;;5085870;28;20401;-78
2022/04/18 12:50:03;;;;;;;;;;;;;;;;;;5086914;28;19923;-82
2022/04/18 12:52:28;;;;;;;;;;;;;;;;;;5087299;28;19920;-82
2022/04/18 12:55:01;;;;;;;;;;;;;;;;;;5087536;28;19985;-82
2022/04/18 12:57:29;;;;;;;;;;;;;;;;;;5087280;28;20011;-78
2022/04/18 12:59:54;;;;;;;;;;;;;;;;;;5081973;28;20259;-79
2022/04/18 13:02:20;;;;;;;;;;;;;;;;;;5089360;28;19916;-80
2022/04/18 13:04:58;;;;;;;;;;;;;;;;;;5092105;28;19993;-81
2022/04/18 13:07:23;;;;;;;;;;;;;;;;;;5090645;28;20015;-80
2022/04/18 13:10:00;;;;;;;;;;;;;;;;;;5083954;28;20459;-80
2022/04/18 13:12:29;;;;;;;;;;;;;;;;;;5078978;28;19939;-79
2022/04/18 13:15:04;;;;;;;;;;;;;;;;;;5092972;28;20005;-78
2022/04/18 13:17:33;;;;;;;;;;;;;;;;;;5095581;28;19916;-78
2022/04/18 13:19:59;;;;;;;;;;;;;;;;;;5095481;28;20392;-78
2022/04/18 13:22:24;;;;;;;;;;;;;;;;;;5093984;28;19916;-77
2022/04/18 13:24:49;;;;;;;;;;;;;;;;;;5094657;28;20007;-75
2022/04/18 13:27:25;;;;;;;;;;;;;;;;;;5095380;28;19916;-78
2022/04/18 13:29:50;;;;;;;;;;;;;;;;;;5091959;28;19966;-78
2022/04/18 13:32:15;;;;;;;;;;;;;;;;;;5101387;28;19920;-78
2022/04/18 13:34:43;;;;;;;;;;;;;;;;;;5100379;28;19954;-78
2022/04/18 13:37:11;;;;;;;;;;;;;;;;;;5097694;28;19920;-78
2022/04/18 13:39:36;;;;;;;;;;;;;;;;;;5095108;28;19966;-78
2022/04/18 13:42:01;;;;;;;;;;;;;;;;;;5100469;28;19916;-78
2022/04/18 13:44:27;;;;;;;;;;;;;;;;;;5100442;28;19916;-78
2022/04/18 13:46:55;;;;;;;;;;;;;;;;;;5089173;28;19917;-78
2022/04/18 13:49:20;;;;;;;;;;;;;;;;;;5079505;28;19920;-78
2022/04/18 13:51:46;;;;;;;;;;;;;;;;;;5081332;28;20008;-78
2022/04/18 13:54:12;;;;;;;;;;;;;;;;;;5095496;28;19947;-78
2022/04/18 13:56:38;;;;;;;;;;;;;;;;;;5084184;28;19920;-77
2022/04/18 13:59:10;;;;;;;;;;;;;;;;;;5084335;28;19920;-78
2022/04/18 14:01:35;;;;;;;;;;;;;;;;;;5092808;28;19943;-77
2022/04/18 14:04:02;;;;;;;;;;;;;;;;;;5098702;28;19939;-78
2022/04/18 14:06:29;;;;;;;;;;;;;;;;;;5086613;28;19921;-78
2022/04/18 14:09:01;;;;;;;;;;;;;;;;;;5086460;28;19982;-78
2022/04/18 14:11:26;;;;;;;;;;;;;;;;;;5087387;28;20294;-77
2022/04/18 14:13:51;;;;;;;;;;;;;;;;;;5087870;28;19916;-77
2022/04/18 14:21:46;;;;;;;;;;;;;;;;;;5094589;28;19916;-76
2022/04/18 14:24:11;;;;;;;;;;;;;;;;;;5080498;28;19924;-76
2022/04/18 14:26:36;;;;;;;;;;;;;;;;;;5076621;28;19916;-76
2022/04/18 14:29:02;;;;;;;;;;;;;;;;;;5078921;28;20018;-77
2022/04/18 14:31:29;;;;;;;;;;;;;;;;;;5075430;28;19923;-77
2022/04/18 14:33:54;;;;;;;;;;;;;;;;;;5075857;28;19967;-77
2022/04/18 14:36:20;;;;;;;;;;;;;;;;;;5115136;28;20331;-77
2022/04/18 14:38:46;;;;;;;;;;;;;;;;;;5115406;28;19999;-77
2022/04/18 14:41:11;;;;;;;;;;;;;;;;;;5116596;28;20285;-77
2022/04/18 14:43:36;;;;;;;;;;;;;;;;;;5117064;28;19919;-78
2022/04/18 14:46:02;;;;;;;;;;;;;;;;;;5097138;28;20059;-77
2022/04/18 14:48:27;;;;;;;;;;;;;;;;;;5096346;28;19916;-77
2022/04/18 14:50:53;;;;;;;;;;;;;;;;;;5099754;28;19920;-77
2022/04/18 14:53:18;;;;;;;;;;;;;;;;;;5115629;28;19923;-77
2022/04/18 14:55:43;;;;;;;;;;;;;;;;;;5114937;28;20011;-77
2022/04/18 14:58:09;;;;;;;;;;;;;;;;;;5116101;28;20097;-76
2022/04/18 15:00:34;;;;;;;;;;;;;;;;;;5095314;28;19916;-76
2022/04/18 15:03:03;;;;;;;;;;;;;;;;;;5088889;28;19959;-76
2022/04/18 15:05:28;;;;;;;;;;;;;;;;;;5095445;28;19920;-76
2022/04/18 15:07:54;;;;;;;;;;;;;;;;;;5092164;28;20438;-76
2022/04/18 15:10:19;;;;;;;;;;;;;;;;;;5086422;28;20009;-75
2022/04/18 15:12:45;;;;;;;;;;;;;;;;;;5084451;28;19963;-76
2022/04/18 15:15:10;;;;;;;;;;;;;;;;;;5083622;28;20049;-76
2022/04/18 15:17:36;;;;;;;;;;;;;;;;;;5085056;28;20384;-77
2022/04/18 15:20:01;;;;;;;;;;;;;;;;;;5080443;28;20374;-76
2022/04/18 15:22:26;;;;;;;;;;;;;;;;;;5081228;28;19971;-76
2022/04/18 15:24:52;;;;;;;;;;;;;;;;;;5088675;28;19923;-76
2022/04/18 15:27:17;;;;;;;;;;;;;;;;;;5083683;28;19923;-76
2022/04/18 15:29:42;;;;;;;;;;;;;;;;;;5084225;28;20014;-76
2022/04/18 15:32:09;;;;;;;;;;;;;;;;;;5084338;28;19920;-76
2022/04/18 15:34:39;;;;;;;;;;;;;;;;;;5080745;28;19920;-76
2022/04/18 15:37:09;;;;;;;;;;;;;;;;;;5071261;28;20002;-76
2022/04/18 15:39:35;;;;;;;;;;;;;;;;;;5088937;28;19920;-75
2022/04/18 15:42:00;;;;;;;;;;;;;;;;;;5080341;28;20587;-76
2022/04/18 15:44:28;;;;;;;;;;;;;;;;;;5081851;28;20381;-75
2022/04/18 15:46:56;;;;;;;;;;;;;;;;;;5080773;28;19920;-76
2022/04/18 15:49:21;;;;;;;;;;;;;;;;;;5083674;28;19923;-76
2022/04/18 15:51:47;;;;;;;;;;;;;;;;;;5075994;28;19916;-76
2022/04/18 15:54:12;;;;;;;;;;;;;;;;;;5073440;28;20006;-76
2022/04/18 15:56:38;;;;;;;;;;;;;;;;;;5056542;28;19960;-76
2022/04/18 15:59:03;;;;;;;;;;;;;;;;;;5074613;28;19927;-76
2022/04/18 16:01:28;;;;;;;;;;;;;;;;;;5076896;28;19982;-76
2022/04/18 16:03:54;;;;;;;;;;;;;;;;;;5094649;28;19923;-77
2022/04/18 16:06:19;;;;;;;;;;;;;;;;;;5094555;28;20442;-76
2022/04/18 16:08:44;;;;;;;;;;;;;;;;;;5094697;28;19912;-76
2022/04/18 16:11:10;;;;;;;;;;;;;;;;;;5095267;28;20001;-75
2022/04/18 16:13:35;;;;;;;;;;;;;;;;;;5094857;28;20049;-77
2022/04/18 16:16:01;;;;;;;;;;;;;;;;;;5093407;28;19916;-77
2022/04/18 16:18:26;;;;;;;;;;;;;;;;;;5094371;28;20013;-76
2022/04/18 16:20:52;;;;;;;;;;;;;;;;;;5094033;28;20401;-76
2022/04/18 16:23:17;;;;;;;;;;;;;;;;;;5094454;28;19916;-76
2022/04/18 16:25:42;;;;;;;;;;;;;;;;;;5092274;28;20327;-74
2022/04/18 16:28:08;;;;;;;;;;;;;;;;;;5093588;28;19927;-77
2022/04/18 16:33:17;;;;;;;;;;;;;;;;;;5094989;28;19916;-77
2022/04/18 16:35:43;;;;;;;;;;;;;;;;;;5094060;28;20010;-78
2022/04/18 16:38:08;;;;;;;;;;;;;;;;;;5094175;28;19931;-77
2022/04/18 16:40:34;;;;;;;;;;;;;;;;;;5093461;28;20015;-77
2022/04/18 16:45:50;;;;;;;;;;;;;;;;;;5093132;28;19941;-78
2022/04/18 16:48:16;;;;;;;;;;;;;;;;;;5094918;28;20389;-81
2022/04/18 16:50:41;;;;;;;;;;;;;;;;;;5095085;28;19916;-79
2022/04/18 16:53:07;;;;;;;;;;;;;;;;;;5097892;28;19920;-77
2022/04/18 16:55:32;;;;;;;;;;;;;;;;;;5093315;28;19916;-77
2022/04/18 16:57:58;;;;;;;;;;;;;;;;;;5092331;28;19931;-78
2022/04/18 17:00:23;;;;;;;;;;;;;;;;;;5093875;28;19916;-77
2022/04/18 17:02:48;;;;;;;;;;;;;;;;;;5093117;28;19923;-78
2022/04/18 17:05:14;;;;;;;;;;;;;;;;;;5094631;28;20381;-78
2022/04/18 17:07:39;;;;;;;;;;;;;;;;;;5094561;28;20285;-80
2022/04/18 17:10:05;;;;;;;;;;;;;;;;;;5095354;28;19938;-77
2022/04/18 17:12:30;;;;;;;;;;;;;;;;;;5095980;28;19916;-77
2022/04/18 17:14:56;;;;;;;;;;;;;;;;;;5096189;28;19912;-80
2022/04/18 17:17:21;;;;;;;;;;;;;;;;;;5103732;28;19937;-79
2022/04/18 17:19:47;;;;;;;;;;;;;;;;;;5102945;28;19927;-79
2022/04/18 17:22:12;;;;;;;;;;;;;;;;;;5101995;28;19923;-79
2022/04/18 17:24:37;;;;;;;;;;;;;;;;;;5102087;28;19920;-78
2022/04/18 17:27:03;;;;;;;;;;;;;;;;;;5099222;28;19923;-77
2022/04/18 17:29:29;;;;;;;;;;;;;;;;;;5099356;28;20404;-77
2022/04/18 17:31:54;;;;;;;;;;;;;;;;;;5100114;28;19978;-77
2022/04/18 17:34:22;;;;;;;;;;;;;;;;;;5100645;28;19916;-77
2022/04/18 17:36:47;;;;;;;;;;;;;;;;;;5099118;28;19917;-77
2022/04/18 17:39:12;;;;;;;;;;;;;;;;;;5099415;28;20430;-78